Latest Weather Observations for Hay Airport

IDN60801

Issued at 10:35 pm EDT Monday 24 November 2014 (issued every 30 minutes, with the page automatically refreshed every 10 minutes)

About weather observations | Map of weather stations | Latest weather observations for NSW | Other Formats
Station Details ID: 075019 Name: HAY AIRPORT AWS Lat: -34.54 Lon: 144.83 Height: 92.0 m
Data from the previous 72 hours. | See also: Recent months for locations in New South Wales
Date/Time
EDT
Temp
°C
App
Temp
°C
Dew
Point
Rel
Hum
%
Delta-T
°C
Wind Press
QNH
hPa
Press
MSL
hPa
Rain
since 9 am
mm
Dir
 
Spd
km/h
Gust
km/h
Spd
kts
Gust
kts
24/10:30pm 18.2 13.0 13.5 74 2.7 SW 33 48 18 26 1013.5 1013.2 9.4
24/10:00pm 19.2 14.7 14.9 76 2.5 SW 32 43 17 23 1012.6 1012.3 9.4
24/09:40pm 20.8 15.5 16.2 75 2.8 SW 39 48 21 26 1012.2 1011.9 9.4
24/09:30pm 20.9 20.4 17.7 82 2.0 WSW 17 28 9 15 1011.6 1011.3 9.4
24/09:00pm 20.8 21.5 18.9 89 1.2 W 13 15 7 8 1010.8 1010.6 9.4
24/08:30pm 20.9 21.4 19.2 90 1.1 W 15 17 8 9 1010.6 1010.4 9.4
24/08:00pm 20.7 21.2 19.2 91 1.0 W 15 19 8 10 1010.0 1009.7 9.4
24/07:30pm 20.4 20.8 19.1 92 0.8 W 15 19 8 10 1009.7 1009.4 9.4
24/07:07pm 20.2 20.7 18.3 89 1.2 N 13 17 7 9 1007.8 1007.5 9.0
24/07:00pm 19.9 19.1 18.4 91 0.9 NNW 20 22 11 12 1009.8 1009.5 8.6
24/06:56pm 20.0 19.1 18.3 90 1.1 NW 20 20 11 11 1009.7 1009.4 8.4
24/06:35pm 20.7 14.7 16.9 79 2.3 W 44 63 24 34 1009.8 1009.5 6.6
24/06:30pm 21.2 14.5 18.0 82 2.0 W 50 63 27 34 1009.9 1009.6 6.4
24/06:21pm 21.3 17.5 19.0 87 1.5 W 37 57 20 31 1009.5 1009.2 6.0
24/06:01pm 21.4 16.6 16.6 74 2.9 WNW 37 44 20 24 1007.7 1007.4 4.6
24/06:00pm 20.3 10.8 15.3 73 3.0 W 59 91 32 49 1007.8 1007.5 4.4
24/05:50pm 21.1 11.3 15.4 70 3.4 W 61 80 33 43 1007.4 1007.1 2.8
24/05:47pm 24.6 16.1 16.8 62 4.8 W 57 70 31 38 1007.1 1006.8 2.6
24/05:44pm 27.3 23.5 18.0 56 5.9 W 35 57 19 31 1007.0 1006.7 2.6
24/05:30pm 30.0 26.1 16.4 44 8.5 NW 32 44 17 24 1005.7 1005.4 2.6
24/05:00pm 30.8 26.2 17.1 43 8.7 NW 37 54 20 29 1005.8 1005.5 2.6
24/04:30pm 30.9 25.1 16.9 43 8.9 NNW 43 54 23 29 1005.8 1005.5 2.6
24/04:11pm 31.4 26.2 16.6 41 9.3 NNW 39 57 21 31 1005.6 1005.3 2.6
24/04:00pm 31.1 26.7 16.7 42 9.1 N 35 46 19 25 1005.7 1005.4 2.6
24/03:30pm 30.4 26.0 17.5 46 8.2 N 37 46 20 25 1006.1 1005.8 2.6
24/03:00pm 30.1 26.7 18.2 49 7.7 N 33 44 18 24 1007.2 1006.9 2.6
24/02:30pm 29.4 25.4 16.2 44 8.2 N 32 44 17 24 1007.8 1007.5 2.6
24/02:00pm 28.9 25.9 18.7 54 6.6 N 32 41 17 22 1008.3 1008.0 2.6
24/01:30pm 27.7 25.5 19.5 61 5.3 NNE 30 39 16 21 1008.7 1008.4 2.6
24/01:00pm 26.8 23.8 18.6 60 5.3 N 32 46 17 25 1009.0 1008.7 2.6
24/12:30pm 24.9 22.1 18.3 66 4.2 N 30 41 16 22 1009.2 1008.9 2.6
24/12:00pm 22.8 18.8 17.7 73 3.2 NNE 35 46 19 25 1009.0 1008.7 2.6
24/11:30am 21.8 18.0 18.0 79 2.4 NNE 35 46 19 25 1008.9 1008.6 2.6
24/11:26am 21.3 17.8 17.9 81 2.1 NNE 33 44 18 24 1009.3 1009.0 2.6
24/11:00am 22.4 20.1 17.5 74 3.0 N 26 35 14 19 1011.5 1011.2 2.0
24/10:30am 21.1 17.4 17.5 80 2.2 NNE 33 43 18 23 1010.0 1009.7 2.0
24/10:00am 20.5 18.3 17.9 85 1.6 NNE 26 33 14 18 1011.6 1011.3 2.0
24/09:30am 20.5 19.6 18.1 86 1.5 N 20 22 11 12 1013.5 1013.2 1.6
24/09:00am 21.1 18.6 17.1 78 2.5 NW 26 37 14 20 1013.2 1012.9 0.4
24/08:30am 22.7 20.5 16.9 70 3.6 NNW 24 30 13 16 1013.4 1013.1 0.0
24/08:00am 22.8 21.0 17.0 70 3.6 NNW 22 30 12 16 1012.8 1012.5 0.0
24/07:30am 23.4 18.9 16.4 64 4.3 NNW 35 46 19 25 1012.6 1012.3 0.0
24/07:00am 23.4 18.9 15.5 61 4.8 N 33 44 18 24 1011.9 1011.6 0.0
24/06:30am 24.3 17.4 14.1 53 6.0 NNE 43 56 23 30 1010.9 1010.7 0.0
24/06:01am 24.0 18.0 14.4 55 5.7 NNE 39 57 21 31 1010.5 1010.3 0.0
24/06:00am 23.9 17.9 14.3 55 5.7 NNE 39 50 21 27 1010.6 1010.4 0.0
24/05:30am 24.9 20.8 13.8 50 6.5 NNE 28 39 15 21 1010.2 1009.9 0.0
24/05:00am 26.5 20.4 9.8 35 9.3 NNE 32 43 17 23 1009.6 1009.3 0.0
24/04:30am 26.5 20.1 7.0 29 10.3 NNE 30 39 16 21 1009.5 1009.2 0.0
24/04:00am 25.9 20.9 8.0 32 9.6 NNE 24 30 13 16 1009.1 1008.8 0.0
24/03:30am 25.8 19.8 8.8 34 9.3 NNE 30 43 16 23 1009.0 1008.7 0.0
24/03:00am 24.6 17.6 10.1 40 8.0 NNE 37 46 20 25 1009.2 1008.9 0.0
24/02:37am 24.8 19.4 11.0 42 7.8 NE 30 48 16 26 1009.5 1009.2 0.0
24/02:30am 24.5 21.3 11.1 43 7.5 NNE 19 33 10 18 1010.2 1009.9 0.0
24/02:00am 24.3 20.9 11.3 44 7.3 NE 20 26 11 14 1010.1 1009.8 0.0
24/01:30am 24.7 24.0 11.3 43 7.6 ESE 6 11 3 6 1011.6 1011.3 0.0
24/01:00am 24.6 21.5 11.5 44 7.4 ESE 19 20 10 11 1011.9 1011.6 0.0
24/12:30am 24.2 21.7 11.2 44 7.3 S 15 20 8 11 1012.8 1012.5 0.0
24/12:00am 27.2 23.8 7.6 29 10.5 W 15 20 8 11 1014.6 1014.3 0.0
 
Date/Time
EDT
Temp
°C
App
Temp
°C
Dew
Point
Rel
Hum
%
Delta-T
°C
Wind Press
QNH
hPa
Press
MSL
hPa
Rain
since 9 am
mm
Dir
 
Spd
km/h
Gust
km/h
Spd
kts
Gust
kts
23/11:30pm 27.4 25.4 7.3 28 10.8 W 7 13 4 7 1012.9 1012.6 0.0
23/11:00pm 26.6 24.9 6.1 27 10.7 WNW 4 6 2 3 1012.8 1012.5 0.0
23/10:30pm 28.2 25.6 6.3 25 11.6 W 9 11 5 6 1012.5 1012.2 0.0
23/10:00pm 29.1 27.0 5.9 23 12.2 SW 6 6 3 3 1012.1 1011.8 0.0
23/09:30pm 30.1 26.4 6.1 22 12.8 S 15 22 8 12 1010.7 1010.5 0.0
23/09:00pm 30.2 25.9 6.8 23 12.6 SSW 19 24 10 13 1010.0 1009.7 0.0
23/08:30pm 30.3 22.8 8.1 25 12.2 SSW 37 54 20 29 1009.9 1009.6 0.0
23/08:29pm 30.4 23.0 8.2 25 12.3 SSW 37 54 20 29 1009.9 1009.6 0.0
23/08:00pm 31.2 25.3 7.6 23 13.0 SW 28 41 15 22 1012.0 1011.7 0.0
23/07:30pm 31.6 28.1 7.3 22 13.3 WNW 15 22 8 12 1013.3 1013.0 0.0
23/07:00pm 32.2 27.9 7.1 21 13.7 W 19 26 10 14 1012.6 1012.3 0.0
23/06:30pm 32.5 27.2 6.7 20 14.0 WSW 24 30 13 16 1011.3 1011.0 0.0
23/06:00pm 32.9 26.7 6.2 19 14.5 SW 28 39 15 21 1010.1 1009.8 0.0
23/05:30pm 34.0 26.1 4.6 16 15.6 WSW 35 44 19 24 1009.7 1009.4 0.0
23/05:00pm 35.1 28.4 8.0 19 15.3 SW 33 43 18 23 1010.0 1009.7 0.0
23/04:30pm 35.5 29.4 10.5 22 14.6 W 33 41 18 22 1010.3 1010.0 0.0
23/04:00pm 35.3 29.6 11.0 23 14.3 WSW 32 43 17 23 1010.5 1010.3 0.0
23/03:30pm 35.4 30.8 11.1 23 14.4 SW 26 35 14 19 1010.3 1010.0 0.0
23/03:00pm 35.9 31.1 11.5 23 14.5 WSW 28 41 15 22 1010.6 1010.4 0.0
23/02:41pm 36.2 31.4 11.8 23 14.6 WSW 28 46 15 25 1010.4 1010.2 0.0
23/02:30pm 37.0 33.0 11.8 22 15.1 WSW 24 35 13 19 1010.3 1010.0 0.0
23/02:00pm 36.8 33.5 10.9 21 15.4 SW 19 28 10 15 1009.9 1009.6 0.0
23/01:30pm 36.2 33.9 10.4 21 15.1 SSW 13 24 7 13 1009.5 1009.2 0.0
23/01:00pm 36.4 32.8 10.6 21 15.2 WSW 20 26 11 14 1009.6 1009.3 0.0
23/12:30pm 35.1 33.9 11.5 24 14.0 SSW 9 17 5 9 1009.7 1009.4 0.0
23/12:00pm 34.9 33.6 11.3 24 14.0 S 9 17 5 9 1009.9 1009.6 0.0
23/11:30am 33.2 31.9 11.1 26 12.9 S 9 20 5 11 1010.1 1009.8 0.0
23/11:00am 33.4 31.5 11.9 27 12.8 E 13 24 7 13 1009.7 1009.4 0.0
23/10:30am 31.4 28.0 11.2 29 11.8 SE 20 32 11 17 1009.7 1009.4 0.0
23/10:00am 30.0 26.2 12.4 34 10.4 SE 24 32 13 17 1009.9 1009.6 0.0
23/09:30am 29.1 25.5 12.9 37 9.6 SE 24 32 13 17 1009.9 1009.6 0.0
23/09:00am 27.8 23.4 13.0 40 8.7 SE 28 35 15 19 1009.8 1009.5 1.2
23/08:30am 26.3 23.1 13.1 44 7.7 SE 22 32 12 17 1009.6 1009.3 1.0
23/08:00am 24.1 21.1 12.7 49 6.6 SSE 20 28 11 15 1009.6 1009.3 1.0
23/07:30am 22.8 19.9 13.0 54 5.7 SSE 20 26 11 14 1009.6 1009.3 1.0
23/07:00am 20.9 18.4 13.6 63 4.2 S 19 24 10 13 1009.4 1009.1 1.0
23/06:30am 18.9 16.5 13.7 72 3.0 S 19 24 10 13 1009.0 1008.7 1.0
23/06:00am 19.4 17.7 13.6 69 3.3 S 15 20 8 11 1008.5 1008.2 1.0
23/05:30am 20.4 18.5 13.1 63 4.2 SSE 15 17 8 9 1008.5 1008.2 1.0
23/05:00am 20.8 18.8 12.8 60 4.6 SSE 15 17 8 9 1008.3 1008.0 1.0
23/04:30am 20.8 18.4 12.8 60 4.6 SSE 17 20 9 11 1008.2 1007.9 1.0
23/04:00am 21.1 18.8 13.0 60 4.6 SE 17 20 9 11 1008.3 1008.0 1.0
23/03:30am 21.1 19.2 13.0 60 4.6 SSE 15 20 8 11 1008.5 1008.2 1.0
23/03:00am 20.3 18.9 12.3 60 4.5 S 11 15 6 8 1008.6 1008.3 1.0
23/02:30am 21.2 19.8 13.4 61 4.5 ESE 13 17 7 9 1008.3 1008.0 1.0
23/02:00am 22.1 21.2 13.7 59 4.9 E 11 17 6 9 1008.5 1008.2 1.0
23/01:30am 22.7 20.9 13.2 55 5.5 E 15 20 8 11 1008.7 1008.4 1.0
23/01:00am 22.5 20.8 13.6 57 5.2 SE 15 19 8 10 1009.4 1009.1 1.0
23/12:30am 22.9 21.2 13.7 56 5.4 E 15 19 8 10 1009.4 1009.1 1.0
23/12:00am 23.8 21.8 12.8 50 6.4 SE 15 20 8 11 1009.6 1009.3 1.0
 
Date/Time
EDT
Temp
°C
App
Temp
°C
Dew
Point
Rel
Hum
%
Delta-T
°C
Wind Press
QNH
hPa
Press
MSL
hPa
Rain
since 9 am
mm
Dir
 
Spd
km/h
Gust
km/h
Spd
kts
Gust
kts
22/11:30pm 23.5 20.5 13.7 54 5.7 ESE 22 33 12 18 1009.2 1008.9 1.0
22/11:00pm 24.4 22.0 13.9 52 6.2 E 19 32 10 17 1009.6 1009.3 1.0
22/10:30pm 25.2 23.9 12.4 45 7.4 S 11 13 6 7 1010.7 1010.5 1.0
22/10:00pm 25.3 22.2 11.5 42 7.9 SE 19 24 10 13 1009.6 1009.3 1.0
22/09:30pm 25.0 22.1 12.2 44 7.4 SE 19 20 10 11 1009.7 1009.4 1.0
22/09:00pm 25.0 23.1 12.9 47 7.0 SSE 15 20 8 11 1010.5 1010.3 1.0
22/08:30pm 25.9 23.5 13.7 47 7.2 S 19 24 10 13 1009.8 1009.5 1.0
22/08:00pm 26.3 22.8 13.4 45 7.6 SE 24 32 13 17 1008.6 1008.3 1.0
22/07:30pm 26.6 23.5 13.3 43 7.8 SSE 22 30 12 16 1009.1 1008.8 1.0
22/07:00pm 26.9 23.6 14.0 45 7.7 S 24 32 13 17 1009.0 1008.7 1.0
22/06:30pm 27.2 24.2 14.9 47 7.5 S 24 33 13 18 1008.8 1008.5 1.0
22/06:00pm 27.1 27.7 17.8 56 5.9 SSW 11 20 6 11 1009.5 1009.2 1.0
22/05:53pm 25.6 21.6 17.5 61 5.1 SW 35 54 19 29 1009.9 1009.6 1.0
22/05:45pm 27.4 21.1 12.2 39 8.8 SSW 37 54 20 29 1009.0 1008.7 0.4
22/05:38pm 34.5 28.1 5.0 16 15.8 SW 28 41 15 22 1009.0 1008.7 0.0
22/05:30pm 34.7 31.1 5.2 16 15.9 S 13 22 7 12 1007.5 1007.2 0.0
22/05:00pm 35.7 32.5 5.1 15 16.6 SSW 11 19 6 10 1007.5 1007.2 0.0
22/04:30pm 35.4 32.5 4.8 15 16.4 SSW 9 17 5 9 1007.7 1007.4 0.0
22/04:00pm 35.9 31.4 4.2 14 16.9 SW 17 32 9 17 1008.3 1008.0 0.0
22/03:30pm 36.2 31.8 4.5 14 17.0 W 17 28 9 15 1008.6 1008.3 0.0
22/03:00pm 35.0 30.2 4.5 15 16.3 W 19 24 10 13 1009.3 1009.0 0.0
22/02:30pm 35.0 29.6 4.5 15 16.2 W 22 32 12 17 1010.0 1009.7 0.0
22/02:00pm 34.9 30.1 4.4 15 16.2 NW 19 24 10 13 1010.2 1009.9 0.0
22/01:30pm 33.7 28.7 4.4 16 15.5 NW 20 28 11 15 1010.5 1010.3 0.0
22/01:00pm 34.0 29.2 5.5 17 15.4 NW 20 32 11 17 1010.7 1010.5 0.0
22/12:30pm 33.7 29.0 5.3 17 15.2 NNW 19 28 10 15 1011.1 1010.9 0.0
22/12:00pm 32.7 27.1 3.6 16 15.1 N 22 33 12 18 1011.4 1011.1 0.0
22/11:30am 31.7 26.3 4.5 18 14.2 N 22 33 12 18 1011.1 1010.9 0.0
22/11:00am 31.1 26.1 4.8 19 13.8 NNE 20 32 11 17 1010.9 1010.7 0.0
22/10:30am 30.5 25.2 5.0 20 13.4 NE 22 30 12 16 1010.9 1010.7 0.0
22/10:00am 29.5 23.9 3.5 19 13.2 NE 22 33 12 18 1011.4 1011.1 0.0
22/09:30am 28.5 22.9 3.4 20 12.6 NE 22 30 12 16 1011.4 1011.1 0.0
22/09:00am 26.8 20.7 2.7 21 11.9 ENE 24 30 13 16 1011.6 1011.3 0.0
22/08:30am 26.0 20.9 3.3 23 11.2 ENE 19 28 10 15 1011.5 1011.2 0.0
22/08:00am 23.8 18.4 2.6 25 10.2 ENE 20 28 11 15 1011.4 1011.1 0.0
22/07:30am 21.6 16.8 2.8 29 8.9 ENE 17 20 9 11 1011.6 1011.3 0.0
22/07:00am 19.5 15.9 2.8 33 7.8 E 11 15 6 8 1011.5 1011.2 0.0
22/06:30am 17.7 14.0 2.5 36 7.0 E 11 15 6 8 1011.0 1010.8 0.0
22/06:00am 16.3 12.6 2.3 39 6.3 E 11 13 6 7 1010.8 1010.6 0.0
22/05:30am 16.4 12.7 2.4 39 6.3 E 11 15 6 8 1010.3 1010.0 0.0
22/05:00am 16.1 12.4 2.5 40 6.2 E 11 11 6 6 1010.4 1010.2 0.0
22/04:30am 15.6 12.2 2.1 40 6.0 E 9 11 5 6 1010.4 1010.2 0.0
22/04:00am 15.7 12.7 2.2 40 6.0 ESE 7 9 4 5 1010.4 1010.2 0.0
22/03:30am 16.4 13.4 2.1 38 6.4 E 7 9 4 5 1010.5 1010.3 0.0
22/03:00am 17.2 14.3 2.4 37 6.7 E 7 11 4 6 1010.5 1010.3 0.0
22/02:30am 17.5 14.2 2.7 37 6.8 SE 9 9 5 5 1010.8 1010.6 0.0
22/02:00am 16.8 13.8 1.7 36 6.8 ESE 7 9 4 5 1011.0 1010.8 0.0
22/01:30am 17.2 13.9 0.4 32 7.3 SE 7 9 4 5 1011.1 1010.9 0.0
22/01:00am 18.7 15.3 1.7 32 7.7 SSE 9 11 5 6 1011.3 1011.0 0.0
22/12:30am 19.5 15.4 2.4 32 7.9 S 13 13 7 7 1011.5 1011.2 0.0
22/12:00am 19.3 15.5 1.8 31 8.0 SSE 11 13 6 7 1011.6 1011.3 0.0
 
Date/Time
EDT
Temp
°C
App
Temp
°C
Dew
Point
Rel
Hum
%
Delta-T
°C
Wind Press
QNH
hPa
Press
MSL
hPa
Rain
since 9 am
mm
Dir
 
Spd
km/h
Gust
km/h
Spd
kts
Gust
kts
21/11:30pm 21.0 16.9 2.3 29 8.8 S 13 17 7 9 1011.8 1011.5 0.0
21/11:00pm 21.1 16.9 1.9 28 8.9 S 13 15 7 8 1011.9 1011.6 0.0

Other Formats:

Comma delimited format used in spreadsheet applications
http://www.bom.gov.au/fwo/IDN60801/IDN60801.94702.axf

JavaScript Object Notation format (JSON) in row-major order
http://www.bom.gov.au/fwo/IDN60801/IDN60801.94702.json